sensor_id;sensor_type;location;lat;lon;timestamp;P1;durP1;ratioP1;P2;durP2;ratioP2
11052;SDS011;55230;42.602;23.470;2023-02-14T00:00:03;24.83;;;17.07;;
11052;SDS011;55230;42.602;23.470;2023-02-14T00:02:30;24.43;;;16.53;;
11052;SDS011;55230;42.602;23.470;2023-02-14T00:04:57;28.20;;;17.03;;
11052;SDS011;55230;42.602;23.470;2023-02-14T00:07:23;26.97;;;17.33;;
11052;SDS011;55230;42.602;23.470;2023-02-14T00:09:50;27.60;;;18.03;;
11052;SDS011;55230;42.602;23.470;2023-02-14T00:12:18;26.77;;;18.07;;
11052;SDS011;55230;42.602;23.470;2023-02-14T00:14:45;27.57;;;17.60;;
11052;SDS011;55230;42.602;23.470;2023-02-14T00:17:29;29.40;;;18.33;;
11052;SDS011;55230;42.602;23.470;2023-02-14T00:19:56;26.83;;;18.10;;
11052;SDS011;55230;42.602;23.470;2023-02-14T00:22:23;29.90;;;18.10;;
11052;SDS011;55230;42.602;23.470;2023-02-14T00:24:49;26.37;;;18.13;;
11052;SDS011;55230;42.602;23.470;2023-02-14T00:27:16;28.13;;;17.90;;
11052;SDS011;55230;42.602;23.470;2023-02-14T00:29:44;28.57;;;18.53;;
11052;SDS011;55230;42.602;23.470;2023-02-14T00:32:11;28.80;;;18.53;;
11052;SDS011;55230;42.602;23.470;2023-02-14T00:34:39;26.23;;;17.77;;
11052;SDS011;55230;42.602;23.470;2023-02-14T00:37:06;27.50;;;18.30;;
11052;SDS011;55230;42.602;23.470;2023-02-14T00:39:33;26.23;;;17.27;;
11052;SDS011;55230;42.602;23.470;2023-02-14T00:41:59;28.70;;;17.83;;
11052;SDS011;55230;42.602;23.470;2023-02-14T00:44:26;32.17;;;18.17;;
11052;SDS011;55230;42.602;23.470;2023-02-14T00:46:54;29.07;;;17.57;;
11052;SDS011;55230;42.602;23.470;2023-02-14T00:49:21;27.40;;;18.20;;
11052;SDS011;55230;42.602;23.470;2023-02-14T00:51:48;30.30;;;18.73;;
11052;SDS011;55230;42.602;23.470;2023-02-14T00:54:14;26.97;;;17.30;;
11052;SDS011;55230;42.602;23.470;2023-02-14T00:56:41;28.40;;;18.20;;
11052;SDS011;55230;42.602;23.470;2023-02-14T00:59:08;28.13;;;17.27;;
11052;SDS011;55230;42.602;23.470;2023-02-14T01:01:35;25.00;;;16.07;;
11052;SDS011;55230;42.602;23.470;2023-02-14T01:04:03;26.00;;;16.13;;
11052;SDS011;55230;42.602;23.470;2023-02-14T01:06:30;25.30;;;17.10;;
11052;SDS011;55230;42.602;23.470;2023-02-14T01:08:57;26.47;;;16.53;;
11052;SDS011;55230;42.602;23.470;2023-02-14T01:11:24;28.47;;;17.23;;
11052;SDS011;55230;42.602;23.470;2023-02-14T01:13:52;25.80;;;16.93;;
11052;SDS011;55230;42.602;23.470;2023-02-14T01:16:21;26.27;;;17.30;;
11052;SDS011;55230;42.602;23.470;2023-02-14T01:18:50;23.67;;;16.23;;
11052;SDS011;55230;42.602;23.470;2023-02-14T01:21:19;26.77;;;17.13;;
11052;SDS011;55230;42.602;23.470;2023-02-14T01:23:48;25.37;;;16.47;;
11052;SDS011;55230;42.602;23.470;2023-02-14T01:26:16;26.60;;;16.47;;
11052;SDS011;55230;42.602;23.470;2023-02-14T01:28:43;25.57;;;17.00;;
11052;SDS011;55230;42.602;23.470;2023-02-14T01:31:11;26.70;;;17.73;;
11052;SDS011;55230;42.602;23.470;2023-02-14T01:33:39;25.20;;;16.27;;
11052;SDS011;55230;42.602;23.470;2023-02-14T01:36:13;25.07;;;16.40;;
11052;SDS011;55230;42.602;23.470;2023-02-14T01:38:42;25.80;;;16.73;;
11052;SDS011;55230;42.602;23.470;2023-02-14T01:41:09;28.90;;;18.67;;
11052;SDS011;55230;42.602;23.470;2023-02-14T01:43:49;26.93;;;17.53;;
11052;SDS011;55230;42.602;23.470;2023-02-14T01:46:16;28.97;;;18.23;;
11052;SDS011;55230;42.602;23.470;2023-02-14T01:48:43;26.97;;;18.20;;
11052;SDS011;55230;42.602;23.470;2023-02-14T01:51:11;27.53;;;18.10;;
11052;SDS011;55230;42.602;23.470;2023-02-14T01:53:40;27.27;;;17.20;;
11052;SDS011;55230;42.602;23.470;2023-02-14T01:56:08;26.20;;;16.80;;
11052;SDS011;55230;42.602;23.470;2023-02-14T01:58:39;26.63;;;17.03;;
11052;SDS011;55230;42.602;23.470;2023-02-14T02:01:14;25.03;;;17.33;;
11052;SDS011;55230;42.602;23.470;2023-02-14T02:03:43;26.70;;;17.20;;
11052;SDS011;55230;42.602;23.470;2023-02-14T02:06:14;25.87;;;17.00;;
11052;SDS011;55230;42.602;23.470;2023-02-14T02:08:47;24.80;;;16.80;;
11052;SDS011;55230;42.602;23.470;2023-02-14T02:11:19;28.17;;;17.80;;
11052;SDS011;55230;42.602;23.470;2023-02-14T02:13:46;30.17;;;18.37;;
11052;SDS011;55230;42.602;23.470;2023-02-14T02:16:30;27.27;;;17.83;;
11052;SDS011;55230;42.602;23.470;2023-02-14T02:19:37;26.03;;;17.63;;
11052;SDS011;55230;42.602;23.470;2023-02-14T02:25:45;29.40;;;16.80;;
11052;SDS011;55230;42.602;23.470;2023-02-14T02:31:36;28.57;;;18.20;;
11052;SDS011;55230;42.602;23.470;2023-02-14T02:34:29;28.03;;;17.07;;
11052;SDS011;55230;42.602;23.470;2023-02-14T02:37:25;29.90;;;18.03;;
11052;SDS011;55230;42.602;23.470;2023-02-14T02:40:11;28.40;;;18.00;;
11052;SDS011;55230;42.602;23.470;2023-02-14T02:42:52;28.93;;;18.00;;
11052;SDS011;55230;42.602;23.470;2023-02-14T02:45:31;28.20;;;16.97;;
11052;SDS011;55230;42.602;23.470;2023-02-14T02:48:30;29.70;;;16.90;;
11052;SDS011;55230;42.602;23.470;2023-02-14T02:51:03;29.97;;;18.57;;
11052;SDS011;55230;42.602;23.470;2023-02-14T02:53:53;27.43;;;18.17;;
11052;SDS011;55230;42.602;23.470;2023-02-14T02:56:26;26.03;;;16.73;;
11052;SDS011;55230;42.602;23.470;2023-02-14T02:59:14;25.10;;;15.30;;
11052;SDS011;55230;42.602;23.470;2023-02-14T03:01:46;25.33;;;16.23;;
11052;SDS011;55230;42.602;23.470;2023-02-14T03:04:15;26.30;;;15.80;;
11052;SDS011;55230;42.602;23.470;2023-02-14T03:07:02;26.07;;;15.90;;
11052;SDS011;55230;42.602;23.470;2023-02-14T03:09:52;25.70;;;16.17;;
11052;SDS011;55230;42.602;23.470;2023-02-14T03:15:39;23.30;;;15.43;;
11052;SDS011;55230;42.602;23.470;2023-02-14T03:18:18;24.83;;;16.20;;
11052;SDS011;55230;42.602;23.470;2023-02-14T03:21:03;47.70;;;22.37;;
11052;SDS011;55230;42.602;23.470;2023-02-14T03:23:37;36.53;;;18.37;;
11052;SDS011;55230;42.602;23.470;2023-02-14T03:26:16;23.87;;;15.60;;
11052;SDS011;55230;42.602;23.470;2023-02-14T03:28:46;25.47;;;15.97;;
11052;SDS011;55230;42.602;23.470;2023-02-14T03:31:19;25.77;;;15.07;;
11052;SDS011;55230;42.602;23.470;2023-02-14T03:33:49;22.97;;;15.13;;
11052;SDS011;55230;42.602;23.470;2023-02-14T03:36:22;24.50;;;15.53;;
11052;SDS011;55230;42.602;23.470;2023-02-14T03:38:53;26.00;;;15.70;;
11052;SDS011;55230;42.602;23.470;2023-02-14T03:41:26;27.70;;;16.13;;
11052;SDS011;55230;42.602;23.470;2023-02-14T03:43:58;23.53;;;14.87;;
11052;SDS011;55230;42.602;23.470;2023-02-14T03:46:29;22.20;;;14.43;;
11052;SDS011;55230;42.602;23.470;2023-02-14T03:49:00;28.87;;;15.97;;
11052;SDS011;55230;42.602;23.470;2023-02-14T03:51:33;24.40;;;15.00;;
11052;SDS011;55230;42.602;23.470;2023-02-14T03:54:02;29.57;;;16.30;;
11052;SDS011;55230;42.602;23.470;2023-02-14T03:56:35;25.67;;;15.57;;
11052;SDS011;55230;42.602;23.470;2023-02-14T03:59:06;23.17;;;14.27;;
11052;SDS011;55230;42.602;23.470;2023-02-14T04:01:45;24.50;;;14.77;;
11052;SDS011;55230;42.602;23.470;2023-02-14T04:04:17;24.00;;;15.47;;
11052;SDS011;55230;42.602;23.470;2023-02-14T04:06:46;24.90;;;14.93;;
11052;SDS011;55230;42.602;23.470;2023-02-14T04:09:13;25.23;;;16.47;;
11052;SDS011;55230;42.602;23.470;2023-02-14T04:11:41;22.77;;;14.13;;
11052;SDS011;55230;42.602;23.470;2023-02-14T04:14:10;27.37;;;16.57;;
11052;SDS011;55230;42.602;23.470;2023-02-14T04:16:37;23.80;;;15.37;;
11052;SDS011;55230;42.602;23.470;2023-02-14T04:19:17;22.43;;;14.37;;
11052;SDS011;55230;42.602;23.470;2023-02-14T04:21:50;24.90;;;15.27;;
11052;SDS011;55230;42.602;23.470;2023-02-14T04:24:17;25.10;;;15.30;;
11052;SDS011;55230;42.602;23.470;2023-02-14T04:26:46;25.50;;;15.17;;
11052;SDS011;55230;42.602;23.470;2023-02-14T04:29:34;25.03;;;15.17;;
11052;SDS011;55230;42.602;23.470;2023-02-14T04:32:01;22.87;;;15.90;;
11052;SDS011;55230;42.602;23.470;2023-02-14T04:34:29;23.33;;;14.50;;
11052;SDS011;55230;42.602;23.470;2023-02-14T04:36:55;24.03;;;14.60;;
11052;SDS011;55230;42.602;23.470;2023-02-14T04:39:22;21.77;;;14.77;;
11052;SDS011;55230;42.602;23.470;2023-02-14T04:41:50;21.37;;;13.50;;
11052;SDS011;55230;42.602;23.470;2023-02-14T04:44:17;22.93;;;14.60;;
11052;SDS011;55230;42.602;23.470;2023-02-14T04:46:44;23.17;;;14.27;;
11052;SDS011;55230;42.602;23.470;2023-02-14T04:49:11;23.33;;;14.67;;
11052;SDS011;55230;42.602;23.470;2023-02-14T04:51:37;27.23;;;15.27;;
11052;SDS011;55230;42.602;23.470;2023-02-14T04:54:04;22.50;;;14.33;;
11052;SDS011;55230;42.602;23.470;2023-02-14T04:56:31;22.40;;;14.33;;
11052;SDS011;55230;42.602;23.470;2023-02-14T04:58:59;23.00;;;13.73;;
11052;SDS011;55230;42.602;23.470;2023-02-14T05:01:26;23.10;;;13.77;;
11052;SDS011;55230;42.602;23.470;2023-02-14T05:03:53;23.97;;;13.97;;
11052;SDS011;55230;42.602;23.470;2023-02-14T05:06:20;20.93;;;13.17;;
11052;SDS011;55230;42.602;23.470;2023-02-14T05:08:47;22.03;;;14.77;;
11052;SDS011;55230;42.602;23.470;2023-02-14T05:11:13;22.77;;;13.53;;
11052;SDS011;55230;42.602;23.470;2023-02-14T05:13:40;21.87;;;14.47;;
11052;SDS011;55230;42.602;23.470;2023-02-14T05:16:08;21.50;;;13.33;;
11052;SDS011;55230;42.602;23.470;2023-02-14T05:18:35;19.67;;;12.90;;
11052;SDS011;55230;42.602;23.470;2023-02-14T05:21:02;21.10;;;13.20;;
11052;SDS011;55230;42.602;23.470;2023-02-14T05:23:29;21.93;;;13.17;;
11052;SDS011;55230;42.602;23.470;2023-02-14T05:25:56;21.80;;;14.57;;
11052;SDS011;55230;42.602;23.470;2023-02-14T05:28:22;22.67;;;14.60;;
11052;SDS011;55230;42.602;23.470;2023-02-14T05:30:49;19.07;;;12.90;;
11052;SDS011;55230;42.602;23.470;2023-02-14T05:33:18;23.63;;;13.33;;
11052;SDS011;55230;42.602;23.470;2023-02-14T05:35:45;21.00;;;12.77;;
11052;SDS011;55230;42.602;23.470;2023-02-14T05:38:11;20.90;;;13.07;;
11052;SDS011;55230;42.602;23.470;2023-02-14T05:40:39;23.00;;;14.27;;
11052;SDS011;55230;42.602;23.470;2023-02-14T05:43:06;22.50;;;12.60;;
11052;SDS011;55230;42.602;23.470;2023-02-14T05:45:33;21.10;;;13.47;;
11052;SDS011;55230;42.602;23.470;2023-02-14T05:47:59;20.33;;;13.20;;
11052;SDS011;55230;42.602;23.470;2023-02-14T05:50:28;22.23;;;13.77;;
11052;SDS011;55230;42.602;23.470;2023-02-14T05:52:55;21.97;;;13.30;;
11052;SDS011;55230;42.602;23.470;2023-02-14T05:55:22;19.70;;;11.73;;
11052;SDS011;55230;42.602;23.470;2023-02-14T05:57:50;23.73;;;13.37;;
11052;SDS011;55230;42.602;23.470;2023-02-14T06:00:17;21.23;;;12.97;;
11052;SDS011;55230;42.602;23.470;2023-02-14T06:02:45;20.43;;;12.57;;
11052;SDS011;55230;42.602;23.470;2023-02-14T06:05:11;21.73;;;12.90;;
11052;SDS011;55230;42.602;23.470;2023-02-14T06:07:40;20.40;;;13.10;;
11052;SDS011;55230;42.602;23.470;2023-02-14T06:10:08;19.50;;;13.33;;
11052;SDS011;55230;42.602;23.470;2023-02-14T06:12:35;18.47;;;12.57;;
11052;SDS011;55230;42.602;23.470;2023-02-14T06:15:02;21.03;;;12.37;;
11052;SDS011;55230;42.602;23.470;2023-02-14T06:17:29;19.30;;;13.40;;
11052;SDS011;55230;42.602;23.470;2023-02-14T06:19:56;23.53;;;14.07;;
11052;SDS011;55230;42.602;23.470;2023-02-14T06:22:22;24.43;;;14.43;;
11052;SDS011;55230;42.602;23.470;2023-02-14T06:24:50;22.00;;;14.20;;
11052;SDS011;55230;42.602;23.470;2023-02-14T06:27:17;25.93;;;14.50;;
11052;SDS011;55230;42.602;23.470;2023-02-14T06:29:44;25.07;;;15.60;;
11052;SDS011;55230;42.602;23.470;2023-02-14T06:32:11;22.67;;;15.33;;
11052;SDS011;55230;42.602;23.470;2023-02-14T06:34:37;21.47;;;14.33;;
11052;SDS011;55230;42.602;23.470;2023-02-14T06:37:05;23.20;;;14.43;;
11052;SDS011;55230;42.602;23.470;2023-02-14T06:39:31;23.13;;;13.77;;
11052;SDS011;55230;42.602;23.470;2023-02-14T06:42:00;25.10;;;15.27;;
11052;SDS011;55230;42.602;23.470;2023-02-14T06:44:26;24.70;;;15.23;;
11052;SDS011;55230;42.602;23.470;2023-02-14T06:46:53;28.43;;;15.07;;
11052;SDS011;55230;42.602;23.470;2023-02-14T06:49:20;27.30;;;17.17;;
11052;SDS011;55230;42.602;23.470;2023-02-14T06:51:48;26.93;;;15.97;;
11052;SDS011;55230;42.602;23.470;2023-02-14T06:54:14;24.27;;;15.03;;
11052;SDS011;55230;42.602;23.470;2023-02-14T06:56:41;26.93;;;15.67;;
11052;SDS011;55230;42.602;23.470;2023-02-14T06:59:09;28.37;;;17.27;;
11052;SDS011;55230;42.602;23.470;2023-02-14T07:01:36;22.80;;;15.13;;
11052;SDS011;55230;42.602;23.470;2023-02-14T07:04:03;24.03;;;15.50;;
11052;SDS011;55230;42.602;23.470;2023-02-14T07:06:30;25.83;;;15.20;;
11052;SDS011;55230;42.602;23.470;2023-02-14T07:08:57;24.07;;;14.83;;
11052;SDS011;55230;42.602;23.470;2023-02-14T07:11:24;22.47;;;14.83;;
11052;SDS011;55230;42.602;23.470;2023-02-14T07:13:52;24.30;;;15.07;;
11052;SDS011;55230;42.602;23.470;2023-02-14T07:16:20;20.80;;;14.57;;
11052;SDS011;55230;42.602;23.470;2023-02-14T07:18:47;21.40;;;14.67;;
11052;SDS011;55230;42.602;23.470;2023-02-14T07:21:14;20.83;;;13.80;;
11052;SDS011;55230;42.602;23.470;2023-02-14T07:23:41;23.27;;;14.93;;
11052;SDS011;55230;42.602;23.470;2023-02-14T07:26:10;16.77;;;12.93;;
11052;SDS011;55230;42.602;23.470;2023-02-14T07:28:42;22.40;;;14.83;;
11052;SDS011;55230;42.602;23.470;2023-02-14T07:31:08;21.03;;;14.80;;
11052;SDS011;55230;42.602;23.470;2023-02-14T07:33:37;22.27;;;13.67;;
11052;SDS011;55230;42.602;23.470;2023-02-14T07:36:04;21.57;;;14.10;;
11052;SDS011;55230;42.602;23.470;2023-02-14T07:38:31;21.30;;;13.83;;
11052;SDS011;55230;42.602;23.470;2023-02-14T07:40:57;23.20;;;15.77;;
11052;SDS011;55230;42.602;23.470;2023-02-14T07:43:24;23.60;;;14.53;;
11052;SDS011;55230;42.602;23.470;2023-02-14T07:45:51;23.03;;;15.40;;
11052;SDS011;55230;42.602;23.470;2023-02-14T07:48:18;23.60;;;15.97;;
11052;SDS011;55230;42.602;23.470;2023-02-14T07:50:46;21.53;;;15.50;;
11052;SDS011;55230;42.602;23.470;2023-02-14T07:53:13;23.40;;;15.43;;
11052;SDS011;55230;42.602;23.470;2023-02-14T07:55:40;26.77;;;14.43;;
11052;SDS011;55230;42.602;23.470;2023-02-14T07:58:07;20.47;;;14.90;;
11052;SDS011;55230;42.602;23.470;2023-02-14T08:00:33;23.87;;;15.63;;
11052;SDS011;55230;42.602;23.470;2023-02-14T08:03:00;24.33;;;17.43;;
11052;SDS011;55230;42.602;23.470;2023-02-14T08:05:27;23.90;;;16.27;;
11052;SDS011;55230;42.602;23.470;2023-02-14T08:07:55;23.20;;;15.83;;
11052;SDS011;55230;42.602;23.470;2023-02-14T08:10:22;23.93;;;16.17;;
11052;SDS011;55230;42.602;23.470;2023-02-14T08:12:48;26.47;;;15.47;;
11052;SDS011;55230;42.602;23.470;2023-02-14T08:15:24;25.37;;;14.83;;
11052;SDS011;55230;42.602;23.470;2023-02-14T08:18:14;24.53;;;15.10;;
11052;SDS011;55230;42.602;23.470;2023-02-14T08:20:42;25.60;;;15.67;;
11052;SDS011;55230;42.602;23.470;2023-02-14T08:23:10;28.27;;;16.90;;
11052;SDS011;55230;42.602;23.470;2023-02-14T08:25:37;29.57;;;17.57;;
11052;SDS011;55230;42.602;23.470;2023-02-14T08:28:04;28.67;;;17.33;;
11052;SDS011;55230;42.602;23.470;2023-02-14T08:30:31;28.47;;;17.37;;
11052;SDS011;55230;42.602;23.470;2023-02-14T08:32:58;29.80;;;17.90;;
11052;SDS011;55230;42.602;23.470;2023-02-14T08:35:25;26.37;;;16.90;;
11052;SDS011;55230;42.602;23.470;2023-02-14T08:37:52;25.90;;;16.33;;
11052;SDS011;55230;42.602;23.470;2023-02-14T08:40:20;26.07;;;16.47;;
11052;SDS011;55230;42.602;23.470;2023-02-14T08:42:47;27.67;;;16.07;;
11052;SDS011;55230;42.602;23.470;2023-02-14T08:45:13;20.53;;;11.83;;
11052;SDS011;55230;42.602;23.470;2023-02-14T08:47:40;19.17;;;12.53;;
11052;SDS011;55230;42.602;23.470;2023-02-14T08:50:08;18.90;;;12.20;;
11052;SDS011;55230;42.602;23.470;2023-02-14T08:52:37;20.90;;;13.30;;
11052;SDS011;55230;42.602;23.470;2023-02-14T08:55:05;24.43;;;15.80;;
11052;SDS011;55230;42.602;23.470;2023-02-14T08:57:33;21.60;;;13.33;;
11052;SDS011;55230;42.602;23.470;2023-02-14T09:00:00;23.10;;;13.57;;
11052;SDS011;55230;42.602;23.470;2023-02-14T09:02:26;22.23;;;13.83;;
11052;SDS011;55230;42.602;23.470;2023-02-14T09:04:53;22.67;;;14.90;;
11052;SDS011;55230;42.602;23.470;2023-02-14T09:07:20;23.03;;;13.17;;
11052;SDS011;55230;42.602;23.470;2023-02-14T09:09:47;18.73;;;13.27;;
11052;SDS011;55230;42.602;23.470;2023-02-14T09:12:13;24.10;;;13.87;;
11052;SDS011;55230;42.602;23.470;2023-02-14T09:14:42;21.47;;;14.07;;
11052;SDS011;55230;42.602;23.470;2023-02-14T09:17:10;22.07;;;13.73;;
11052;SDS011;55230;42.602;23.470;2023-02-14T09:19:37;24.47;;;13.67;;
11052;SDS011;55230;42.602;23.470;2023-02-14T09:22:05;24.60;;;14.40;;
11052;SDS011;55230;42.602;23.470;2023-02-14T09:24:33;24.90;;;14.87;;
11052;SDS011;55230;42.602;23.470;2023-02-14T09:27:00;19.83;;;12.93;;
11052;SDS011;55230;42.602;23.470;2023-02-14T09:29:27;25.00;;;14.73;;
11052;SDS011;55230;42.602;23.470;2023-02-14T09:31:57;19.73;;;12.93;;
11052;SDS011;55230;42.602;23.470;2023-02-14T09:34:25;20.70;;;13.37;;
11052;SDS011;55230;42.602;23.470;2023-02-14T09:36:52;21.07;;;12.60;;
11052;SDS011;55230;42.602;23.470;2023-02-14T09:39:19;22.73;;;13.30;;
11052;SDS011;55230;42.602;23.470;2023-02-14T09:41:49;22.47;;;14.10;;
11052;SDS011;55230;42.602;23.470;2023-02-14T09:44:36;23.13;;;14.03;;
11052;SDS011;55230;42.602;23.470;2023-02-14T09:47:16;24.97;;;14.93;;
11052;SDS011;55230;42.602;23.470;2023-02-14T09:49:47;23.67;;;14.03;;
11052;SDS011;55230;42.602;23.470;2023-02-14T09:52:15;22.87;;;13.27;;
11052;SDS011;55230;42.602;23.470;2023-02-14T09:54:45;23.67;;;13.30;;
11052;SDS011;55230;42.602;23.470;2023-02-14T09:57:19;24.40;;;13.50;;
11052;SDS011;55230;42.602;23.470;2023-02-14T09:59:51;24.93;;;14.10;;
11052;SDS011;55230;42.602;23.470;2023-02-14T10:02:33;24.50;;;13.90;;
11052;SDS011;55230;42.602;23.470;2023-02-14T10:05:09;26.57;;;15.03;;
11052;SDS011;55230;42.602;23.470;2023-02-14T10:07:44;23.57;;;14.17;;
11052;SDS011;55230;42.602;23.470;2023-02-14T10:10:22;27.97;;;15.63;;
11052;SDS011;55230;42.602;23.470;2023-02-14T10:12:56;26.00;;;15.77;;
11052;SDS011;55230;42.602;23.470;2023-02-14T10:15:30;31.97;;;14.80;;
11052;SDS011;55230;42.602;23.470;2023-02-14T10:18:03;26.40;;;14.23;;
11052;SDS011;55230;42.602;23.470;2023-02-14T10:20:34;24.57;;;13.23;;
11052;SDS011;55230;42.602;23.470;2023-02-14T10:23:08;23.33;;;15.03;;
11052;SDS011;55230;42.602;23.470;2023-02-14T10:25:46;24.33;;;14.03;;
11052;SDS011;55230;42.602;23.470;2023-02-14T10:28:18;24.27;;;13.43;;
11052;SDS011;55230;42.602;23.470;2023-02-14T10:30:56;24.40;;;13.97;;
11052;SDS011;55230;42.602;23.470;2023-02-14T10:33:50;23.07;;;13.23;;
11052;SDS011;55230;42.602;23.470;2023-02-14T10:36:20;23.03;;;13.10;;
11052;SDS011;55230;42.602;23.470;2023-02-14T10:39:15;22.63;;;13.33;;
11052;SDS011;55230;42.602;23.470;2023-02-14T10:41:51;23.37;;;13.23;;
11052;SDS011;55230;42.602;23.470;2023-02-14T10:44:36;23.90;;;14.27;;
11052;SDS011;55230;42.602;23.470;2023-02-14T10:47:13;20.50;;;11.80;;
11052;SDS011;55230;42.602;23.470;2023-02-14T10:49:53;17.03;;;11.23;;
11052;SDS011;55230;42.602;23.470;2023-02-14T10:52:28;18.13;;;12.13;;
11052;SDS011;55230;42.602;23.470;2023-02-14T10:55:07;19.43;;;11.87;;
11052;SDS011;55230;42.602;23.470;2023-02-14T10:57:39;17.40;;;12.10;;
11052;SDS011;55230;42.602;23.470;2023-02-14T11:00:11;18.17;;;11.63;;
11052;SDS011;55230;42.602;23.470;2023-02-14T11:02:46;19.20;;;12.23;;
11052;SDS011;55230;42.602;23.470;2023-02-14T11:05:21;16.83;;;10.67;;
11052;SDS011;55230;42.602;23.470;2023-02-14T11:07:51;21.07;;;11.80;;
11052;SDS011;55230;42.602;23.470;2023-02-14T11:10:18;22.87;;;13.27;;
11052;SDS011;55230;42.602;23.470;2023-02-14T11:12:49;17.70;;;12.00;;
11052;SDS011;55230;42.602;23.470;2023-02-14T11:15:23;24.57;;;16.00;;
11052;SDS011;55230;42.602;23.470;2023-02-14T11:18:09;27.20;;;16.17;;
11052;SDS011;55230;42.602;23.470;2023-02-14T11:20:53;19.67;;;13.00;;
11052;SDS011;55230;42.602;23.470;2023-02-14T11:23:25;19.10;;;11.33;;
11052;SDS011;55230;42.602;23.470;2023-02-14T11:25:53;20.67;;;12.80;;
11052;SDS011;55230;42.602;23.470;2023-02-14T11:28:20;24.43;;;16.67;;
11052;SDS011;55230;42.602;23.470;2023-02-14T11:30:48;20.40;;;13.77;;
11052;SDS011;55230;42.602;23.470;2023-02-14T11:33:22;18.27;;;12.57;;
11052;SDS011;55230;42.602;23.470;2023-02-14T11:36:03;20.60;;;13.77;;
11052;SDS011;55230;42.602;23.470;2023-02-14T11:38:35;17.77;;;11.87;;
11052;SDS011;55230;42.602;23.470;2023-02-14T11:41:04;16.00;;;11.47;;
11052;SDS011;55230;42.602;23.470;2023-02-14T11:43:35;19.80;;;12.30;;
11052;SDS011;55230;42.602;23.470;2023-02-14T11:46:04;22.10;;;12.60;;
11052;SDS011;55230;42.602;23.470;2023-02-14T11:48:33;17.73;;;12.07;;
11052;SDS011;55230;42.602;23.470;2023-02-14T11:51:02;16.93;;;11.80;;
11052;SDS011;55230;42.602;23.470;2023-02-14T11:53:35;19.13;;;12.20;;
11052;SDS011;55230;42.602;23.470;2023-02-14T11:56:09;16.50;;;11.43;;
11052;SDS011;55230;42.602;23.470;2023-02-14T11:58:38;17.07;;;12.43;;
11052;SDS011;55230;42.602;23.470;2023-02-14T12:01:10;14.67;;;9.90;;
11052;SDS011;55230;42.602;23.470;2023-02-14T12:03:42;18.00;;;11.03;;
11052;SDS011;55230;42.602;23.470;2023-02-14T12:06:14;16.50;;;11.17;;
11052;SDS011;55230;42.602;23.470;2023-02-14T12:08:49;14.50;;;9.50;;
11052;SDS011;55230;42.602;23.470;2023-02-14T12:11:17;16.23;;;11.00;;
11052;SDS011;55230;42.602;23.470;2023-02-14T12:13:50;15.03;;;10.63;;
11052;SDS011;55230;42.602;23.470;2023-02-14T12:16:18;13.73;;;9.67;;
11052;SDS011;55230;42.602;23.470;2023-02-14T12:18:50;15.13;;;10.97;;
11052;SDS011;55230;42.602;23.470;2023-02-14T12:21:24;16.20;;;10.70;;
11052;SDS011;55230;42.602;23.470;2023-02-14T12:24:14;13.97;;;9.37;;
11052;SDS011;55230;42.602;23.470;2023-02-14T12:26:48;17.90;;;10.73;;
11052;SDS011;55230;42.602;23.470;2023-02-14T12:29:23;14.23;;;10.87;;
11052;SDS011;55230;42.602;23.470;2023-02-14T12:32:01;13.17;;;9.60;;
11052;SDS011;55230;42.602;23.470;2023-02-14T12:34:37;13.13;;;9.27;;
11052;SDS011;55230;42.602;23.470;2023-02-14T12:37:09;14.67;;;10.00;;
11052;SDS011;55230;42.602;23.470;2023-02-14T12:39:46;14.80;;;9.93;;
11052;SDS011;55230;42.602;23.470;2023-02-14T12:42:27;11.83;;;9.20;;
11052;SDS011;55230;42.602;23.470;2023-02-14T12:45:09;12.47;;;9.07;;
11052;SDS011;55230;42.602;23.470;2023-02-14T12:47:44;13.43;;;9.17;;
11052;SDS011;55230;42.602;23.470;2023-02-14T12:50:25;16.07;;;9.93;;
11052;SDS011;55230;42.602;23.470;2023-02-14T12:53:02;14.57;;;10.37;;
11052;SDS011;55230;42.602;23.470;2023-02-14T12:55:52;12.87;;;8.83;;
11052;SDS011;55230;42.602;23.470;2023-02-14T12:58:33;12.63;;;9.07;;
11052;SDS011;55230;42.602;23.470;2023-02-14T13:07:08;11.10;;;9.00;;
11052;SDS011;55230;42.602;23.470;2023-02-14T13:09:44;13.00;;;9.13;;
11052;SDS011;55230;42.602;23.470;2023-02-14T13:12:23;26.80;;;16.10;;
11052;SDS011;55230;42.602;23.470;2023-02-14T13:15:02;12.83;;;9.57;;
11052;SDS011;55230;42.602;23.470;2023-02-14T13:17:40;13.33;;;8.90;;
11052;SDS011;55230;42.602;23.470;2023-02-14T13:20:21;12.80;;;8.87;;
11052;SDS011;55230;42.602;23.470;2023-02-14T13:23:00;13.87;;;9.63;;
11052;SDS011;55230;42.602;23.470;2023-02-14T13:25:33;14.73;;;11.33;;
11052;SDS011;55230;42.602;23.470;2023-02-14T13:28:06;14.70;;;9.67;;
11052;SDS011;55230;42.602;23.470;2023-02-14T13:30:38;15.53;;;11.93;;
11052;SDS011;55230;42.602;23.470;2023-02-14T13:33:07;15.33;;;11.10;;
11052;SDS011;55230;42.602;23.470;2023-02-14T13:35:49;16.83;;;12.20;;
11052;SDS011;55230;42.602;23.470;2023-02-14T13:38:17;17.47;;;11.23;;
11052;SDS011;55230;42.602;23.470;2023-02-14T13:40:46;16.13;;;11.07;;
11052;SDS011;55230;42.602;23.470;2023-02-14T13:43:14;14.50;;;11.30;;
11052;SDS011;55230;42.602;23.470;2023-02-14T13:46:17;17.07;;;12.70;;
11052;SDS011;55230;42.602;23.470;2023-02-14T13:48:56;16.17;;;11.87;;
11052;SDS011;55230;42.602;23.470;2023-02-14T13:51:44;16.50;;;12.37;;
11052;SDS011;55230;42.602;23.470;2023-02-14T13:54:27;15.20;;;11.07;;
11052;SDS011;55230;42.602;23.470;2023-02-14T13:56:57;15.40;;;10.67;;
11052;SDS011;55230;42.602;23.470;2023-02-14T13:59:27;17.13;;;12.00;;
11052;SDS011;55230;42.602;23.470;2023-02-14T14:02:01;15.90;;;11.70;;
11052;SDS011;55230;42.602;23.470;2023-02-14T14:04:57;15.30;;;11.97;;
11052;SDS011;55230;42.602;23.470;2023-02-14T14:07:24;15.23;;;11.10;;
11052;SDS011;55230;42.602;23.470;2023-02-14T14:09:59;18.03;;;12.37;;
11052;SDS011;55230;42.602;23.470;2023-02-14T14:12:38;16.90;;;12.03;;
11052;SDS011;55230;42.602;23.470;2023-02-14T14:15:16;19.03;;;11.93;;
11052;SDS011;55230;42.602;23.470;2023-02-14T14:17:46;18.63;;;13.37;;
11052;SDS011;55230;42.602;23.470;2023-02-14T14:20:43;20.90;;;12.40;;
11052;SDS011;55230;42.602;23.470;2023-02-14T14:23:28;16.80;;;12.27;;
11052;SDS011;55230;42.602;23.470;2023-02-14T14:25:57;24.23;;;15.83;;
11052;SDS011;55230;42.602;23.470;2023-02-14T14:28:27;18.13;;;13.50;;
11052;SDS011;55230;42.602;23.470;2023-02-14T14:30:57;20.80;;;15.17;;
11052;SDS011;55230;42.602;23.470;2023-02-14T14:33:26;19.27;;;14.67;;
11052;SDS011;55230;42.602;23.470;2023-02-14T14:35:56;19.43;;;13.80;;
11052;SDS011;55230;42.602;23.470;2023-02-14T14:38:24;27.20;;;19.37;;
11052;SDS011;55230;42.602;23.470;2023-02-14T14:40:52;16.13;;;12.07;;
11052;SDS011;55230;42.602;23.470;2023-02-14T14:43:23;18.93;;;13.80;;
11052;SDS011;55230;42.602;23.470;2023-02-14T14:45:54;18.87;;;12.47;;
11052;SDS011;55230;42.602;23.470;2023-02-14T14:48:27;17.80;;;12.57;;